<?xml version="1.0" encoding="UTF-8" standalone="no" ?>
<gpx xmlns="http://www.topografix.com/GPX/1/1" xmlns:xsi="http://www.w3.org/2001/XMLSchema-instance" xsi:schemaLocation="http://www.topografix.com/GPX/1/1 http://www.topografix.com/GPX/1/1/gpx.xsd" version="1.1" creator="VisuGPX - https://www.visugpx.com">
  <metadata>
    <name>Granier</name>
  </metadata>
  <trk>
    <name><![CDATA[Granier]]></name>
    <trkseg>
      <trkpt lat="45.57312" lon="6.64976">
        <ele>1268.460976</ele>
        <time>2020-09-17T16:29:59.680Z</time>
      </trkpt>
      <trkpt lat="45.57319" lon="6.64968">
        <ele>1268.460976</ele>
        <time>2020-09-17T16:30:09.994Z</time>
      </trkpt>
      <trkpt lat="45.57328" lon="6.64956">
        <ele>1268.460976</ele>
        <time>2020-09-17T16:30:24.794Z</time>
      </trkpt>
      <trkpt lat="45.57338" lon="6.64949">
        <ele>1268.460976</ele>
        <time>2020-09-17T16:30:34.577Z</time>
      </trkpt>
      <trkpt lat="45.57347" lon="6.64948">
        <ele>1268.460976</ele>
        <time>2020-09-17T16:30:46.550Z</time>
      </trkpt>
      <trkpt lat="45.57374" lon="6.64932">
        <ele>1268.460976</ele>
        <time>2020-09-17T16:31:20.386Z</time>
      </trkpt>
      <trkpt lat="45.57394" lon="6.6493">
        <ele>1268.518763</ele>
        <time>2020-09-17T16:31:48.571Z</time>
      </trkpt>
      <trkpt lat="45.57492" lon="6.65091">
        <ele>1296.623872</ele>
        <time>2020-09-17T16:35:23.663Z</time>
      </trkpt>
      <trkpt lat="45.57556" lon="6.65144">
        <ele>1310.498814</ele>
        <time>2020-09-17T16:37:11.277Z</time>
      </trkpt>
      <trkpt lat="45.57567" lon="6.65164">
        <ele>1313.923527</ele>
        <time>2020-09-17T16:37:37.643Z</time>
      </trkpt>
      <trkpt lat="45.57625" lon="6.65181">
        <ele>1324.90416</ele>
        <time>2020-09-17T16:38:51.877Z</time>
      </trkpt>
      <trkpt lat="45.57669" lon="6.65164">
        <ele>1333.520339</ele>
        <time>2020-09-17T16:39:59.482Z</time>
      </trkpt>
      <trkpt lat="45.57645" lon="6.65162">
        <ele>1338.785182</ele>
        <time>2020-09-17T16:40:32.147Z</time>
      </trkpt>
      <trkpt lat="45.57628" lon="6.6516">
        <ele>1342.712979</ele>
        <time>2020-09-17T16:40:53.487Z</time>
      </trkpt>
      <trkpt lat="45.57616" lon="6.65149">
        <ele>1346.154618</ele>
        <time>2020-09-17T16:41:14.302Z</time>
      </trkpt>
      <trkpt lat="45.57603" lon="6.65134">
        <ele>1350.042037</ele>
        <time>2020-09-17T16:41:34.822Z</time>
      </trkpt>
      <trkpt lat="45.57618" lon="6.651">
        <ele>1356.780818</ele>
        <time>2020-09-17T16:42:24.366Z</time>
      </trkpt>
      <trkpt lat="45.57669" lon="6.65025">
        <ele>1374.158991</ele>
        <time>2020-09-17T16:44:30.234Z</time>
      </trkpt>
      <trkpt lat="45.57685" lon="6.6497">
        <ele>1385.698858</ele>
        <time>2020-09-17T16:45:50.165Z</time>
      </trkpt>
      <trkpt lat="45.57678" lon="6.64896">
        <ele>1402.292463</ele>
        <time>2020-09-17T16:47:55.341Z</time>
      </trkpt>
      <trkpt lat="45.57693" lon="6.64837">
        <ele>1415.996892</ele>
        <time>2020-09-17T16:49:31.301Z</time>
      </trkpt>
      <trkpt lat="45.57743" lon="6.64827">
        <ele>1431.920588</ele>
        <time>2020-09-17T16:51:25.465Z</time>
      </trkpt>
      <trkpt lat="45.57782" lon="6.6478">
        <ele>1446.418481</ele>
        <time>2020-09-17T16:53:15.699Z</time>
      </trkpt>
      <trkpt lat="45.57855" lon="6.64751">
        <ele>1468.006543</ele>
        <time>2020-09-17T16:55:46.594Z</time>
      </trkpt>
      <trkpt lat="45.5789" lon="6.64746">
        <ele>1477.994208</ele>
        <time>2020-09-17T16:56:52.289Z</time>
      </trkpt>
      <trkpt lat="45.57925" lon="6.64753">
        <ele>1487.37075</ele>
        <time>2020-09-17T16:57:56.341Z</time>
      </trkpt>
      <trkpt lat="45.57965" lon="6.64737">
        <ele>1495.687265</ele>
        <time>2020-09-17T16:59:08.006Z</time>
      </trkpt>
      <trkpt lat="45.57989" lon="6.64743">
        <ele>1500.632275</ele>
        <time>2020-09-17T16:59:44.989Z</time>
      </trkpt>
      <trkpt lat="45.58012" lon="6.6477">
        <ele>1506.51102</ele>
        <time>2020-09-17T17:00:26.051Z</time>
      </trkpt>
      <trkpt lat="45.5803" lon="6.64775">
        <ele>1510.366305</ele>
        <time>2020-09-17T17:00:52.841Z</time>
      </trkpt>
      <trkpt lat="45.58041" lon="6.64782">
        <ele>1512.808179</ele>
        <time>2020-09-17T17:01:09.162Z</time>
      </trkpt>
      <trkpt lat="45.58097" lon="6.64797">
        <ele>1523.781651</ele>
        <time>2020-09-17T17:02:23.799Z</time>
      </trkpt>
      <trkpt lat="45.58094" lon="6.64792">
        <ele>1524.497015</ele>
        <time>2020-09-17T17:02:29.653Z</time>
      </trkpt>
      <trkpt lat="45.58075" lon="6.64767">
        <ele>1528.745019</ele>
        <time>2020-09-17T17:02:56.763Z</time>
      </trkpt>
      <trkpt lat="45.58058" lon="6.64712">
        <ele>1535.626392</ele>
        <time>2020-09-17T17:03:41.812Z</time>
      </trkpt>
      <trkpt lat="45.5805" lon="6.64695">
        <ele>1537.959645</ele>
        <time>2020-09-17T17:03:57.571Z</time>
      </trkpt>
      <trkpt lat="45.58063" lon="6.64693">
        <ele>1540.083529</ele>
        <time>2020-09-17T17:04:14.094Z</time>
      </trkpt>
      <trkpt lat="45.58039" lon="6.64605">
        <ele>1551.003106</ele>
        <time>2020-09-17T17:05:38.321Z</time>
      </trkpt>
      <trkpt lat="45.58027" lon="6.64577">
        <ele>1555.022635</ele>
        <time>2020-09-17T17:06:07.614Z</time>
      </trkpt>
      <trkpt lat="45.58008" lon="6.64553">
        <ele>1559.55182</ele>
        <time>2020-09-17T17:06:39.083Z</time>
      </trkpt>
      <trkpt lat="45.58008" lon="6.64549">
        <ele>1560.031097</ele>
        <time>2020-09-17T17:06:46.042Z</time>
      </trkpt>
      <trkpt lat="45.58053" lon="6.64569">
        <ele>1568.412522</ele>
        <time>2020-09-17T17:07:39.544Z</time>
      </trkpt>
      <trkpt lat="45.58212" lon="6.64644">
        <ele>1600.530386</ele>
        <time>2020-09-17T17:11:01.238Z</time>
      </trkpt>
      <trkpt lat="45.58274" lon="6.64692">
        <ele>1614.873809</ele>
        <time>2020-09-17T17:12:35.059Z</time>
      </trkpt>
      <trkpt lat="45.58295" lon="6.64696">
        <ele>1619.009353</ele>
        <time>2020-09-17T17:13:00.394Z</time>
      </trkpt>
      <trkpt lat="45.5836" lon="6.64688">
        <ele>1634.108961</ele>
        <time>2020-09-17T17:14:36.189Z</time>
      </trkpt>
      <trkpt lat="45.58394" lon="6.6466">
        <ele>1643.22925</ele>
        <time>2020-09-17T17:15:33.414Z</time>
      </trkpt>
      <trkpt lat="45.58408" lon="6.64652">
        <ele>1646.776851</ele>
        <time>2020-09-17T17:15:58.322Z</time>
      </trkpt>
      <trkpt lat="45.58413" lon="6.64637">
        <ele>1649.523792</ele>
        <time>2020-09-17T17:16:15.176Z</time>
      </trkpt>
      <trkpt lat="45.58404" lon="6.64633">
        <ele>1651.751402</ele>
        <time>2020-09-17T17:16:31.099Z</time>
      </trkpt>
      <trkpt lat="45.58413" lon="6.64637">
        <ele>1653.979012</ele>
        <time>2020-09-17T17:16:49.561Z</time>
      </trkpt>
      <trkpt lat="45.58408" lon="6.64652">
        <ele>1656.725953</ele>
        <time>2020-09-17T17:17:07.123Z</time>
      </trkpt>
      <trkpt lat="45.58423" lon="6.64647">
        <ele>1660.438406</ele>
        <time>2020-09-17T17:17:30.539Z</time>
      </trkpt>
      <trkpt lat="45.58468" lon="6.64641">
        <ele>1670.433662</ele>
        <time>2020-09-17T17:18:36.715Z</time>
      </trkpt>
      <trkpt lat="45.5851" lon="6.64624">
        <ele>1680.178483</ele>
        <time>2020-09-17T17:19:41.057Z</time>
      </trkpt>
      <trkpt lat="45.58624" lon="6.64472">
        <ele>1712.067806</ele>
        <time>2020-09-17T17:23:09.257Z</time>
      </trkpt>
      <trkpt lat="45.58643" lon="6.64454">
        <ele>1716.038847</ele>
        <time>2020-09-17T17:23:33.604Z</time>
      </trkpt>
      <trkpt lat="45.58681" lon="6.64442">
        <ele>1722.692787</ele>
        <time>2020-09-17T17:24:18.875Z</time>
      </trkpt>
      <trkpt lat="45.58685" lon="6.64435">
        <ele>1723.86672</ele>
        <time>2020-09-17T17:24:28.177Z</time>
      </trkpt>
      <trkpt lat="45.58684" lon="6.64431">
        <ele>1724.32616</ele>
        <time>2020-09-17T17:24:34.345Z</time>
      </trkpt>
      <trkpt lat="45.58627" lon="6.64437">
        <ele>1733.909051</ele>
        <time>2020-09-17T17:25:37.968Z</time>
      </trkpt>
      <trkpt lat="45.58625" lon="6.64433">
        <ele>1734.165793</ele>
        <time>2020-09-17T17:25:43.724Z</time>
      </trkpt>
      <trkpt lat="45.58625" lon="6.64425">
        <ele>1734.651674</ele>
        <time>2020-09-17T17:25:51.234Z</time>
      </trkpt>
      <trkpt lat="45.5863" lon="6.64419">
        <ele>1735.198554</ele>
        <time>2020-09-17T17:26:00.612Z</time>
      </trkpt>
      <trkpt lat="45.58653" lon="6.64418">
        <ele>1737.101632</ele>
        <time>2020-09-17T17:26:19.621Z</time>
      </trkpt>
      <trkpt lat="45.58724" lon="6.64375">
        <ele>1743.634629</ele>
        <time>2020-09-17T17:27:33.774Z</time>
      </trkpt>
      <trkpt lat="45.58824" lon="6.64345">
        <ele>1749.710402</ele>
        <time>2020-09-17T17:28:50.934Z</time>
      </trkpt>
      <trkpt lat="45.58876" lon="6.64343">
        <ele>1750.883793</ele>
        <time>2020-09-17T17:29:27.593Z</time>
      </trkpt>
      <trkpt lat="45.58892" lon="6.64333">
        <ele>1751.276383</ele>
        <time>2020-09-17T17:29:39.074Z</time>
      </trkpt>
      <trkpt lat="45.58892" lon="6.64325">
        <ele>1751.402254</ele>
        <time>2020-09-17T17:29:43.559Z</time>
      </trkpt>
      <trkpt lat="45.58916" lon="6.64319">
        <ele>1751.951382</ele>
        <time>2020-09-17T17:29:59.446Z</time>
      </trkpt>
      <trkpt lat="45.59027" lon="6.64275">
        <ele>1749.619657</ele>
        <time>2020-09-17T17:31:10.822Z</time>
      </trkpt>
      <trkpt lat="45.5904" lon="6.64283">
        <ele>1748.999186</ele>
        <time>2020-09-17T17:31:19.388Z</time>
      </trkpt>
      <trkpt lat="45.59075" lon="6.64288">
        <ele>1747.526831</ele>
        <time>2020-09-17T17:31:38.247Z</time>
      </trkpt>
      <trkpt lat="45.59085" lon="6.64278">
        <ele>1746.977123</ele>
        <time>2020-09-17T17:31:45.129Z</time>
      </trkpt>
      <trkpt lat="45.59099" lon="6.64277">
        <ele>1746.390371</ele>
        <time>2020-09-17T17:31:52.362Z</time>
      </trkpt>
      <trkpt lat="45.5914" lon="6.64255">
        <ele>1743.241901</ele>
        <time>2020-09-17T17:32:14.639Z</time>
      </trkpt>
      <trkpt lat="45.59164" lon="6.64237">
        <ele>1739.582437</ele>
        <time>2020-09-17T17:32:28.498Z</time>
      </trkpt>
      <trkpt lat="45.59189" lon="6.64204">
        <ele>1735.011216</ele>
        <time>2020-09-17T17:32:45.386Z</time>
      </trkpt>
      <trkpt lat="45.59223" lon="6.64126">
        <ele>1726.431817</ele>
        <time>2020-09-17T17:33:16.946Z</time>
      </trkpt>
      <trkpt lat="45.59255" lon="6.64124">
        <ele>1722.184383</ele>
        <time>2020-09-17T17:33:32.398Z</time>
      </trkpt>
      <trkpt lat="45.59278" lon="6.64134">
        <ele>1718.110499</ele>
        <time>2020-09-17T17:33:43.955Z</time>
      </trkpt>
      <trkpt lat="45.59358" lon="6.64101">
        <ele>1702.067061</ele>
        <time>2020-09-17T17:34:24.720Z</time>
      </trkpt>
      <trkpt lat="45.59423" lon="6.641">
        <ele>1689.755323</ele>
        <time>2020-09-17T17:34:55.967Z</time>
      </trkpt>
      <trkpt lat="45.5946" lon="6.64092">
        <ele>1683.161934</ele>
        <time>2020-09-17T17:35:14.166Z</time>
      </trkpt>
      <trkpt lat="45.59491" lon="6.64097">
        <ele>1678.008034</ele>
        <time>2020-09-17T17:35:29.443Z</time>
      </trkpt>
      <trkpt lat="45.59524" lon="6.64075">
        <ele>1672.017408</ele>
        <time>2020-09-17T17:35:47.220Z</time>
      </trkpt>
      <trkpt lat="45.59556" lon="6.6407">
        <ele>1666.720175</ele>
        <time>2020-09-17T17:36:02.866Z</time>
      </trkpt>
      <trkpt lat="45.59586" lon="6.64084">
        <ele>1661.489974</ele>
        <time>2020-09-17T17:36:18.461Z</time>
      </trkpt>
      <trkpt lat="45.59686" lon="6.64052">
        <ele>1652.035175</ele>
        <time>2020-09-17T17:37:09.943Z</time>
      </trkpt>
      <trkpt lat="45.59693" lon="6.64057">
        <ele>1651.544239</ele>
        <time>2020-09-17T17:37:13.508Z</time>
      </trkpt>
      <trkpt lat="45.59702" lon="6.64052">
        <ele>1650.85641</ele>
        <time>2020-09-17T17:37:18.532Z</time>
      </trkpt>
      <trkpt lat="45.59752" lon="6.64028">
        <ele>1647.338645</ele>
        <time>2020-09-17T17:37:43.921Z</time>
      </trkpt>
      <trkpt lat="45.59807" lon="6.63964">
        <ele>1645.719325</ele>
        <time>2020-09-17T17:38:20.657Z</time>
      </trkpt>
      <trkpt lat="45.59868" lon="6.639">
        <ele>1647.050764</ele>
        <time>2020-09-17T17:39:04.673Z</time>
      </trkpt>
      <trkpt lat="45.59913" lon="6.63825">
        <ele>1648.296895</ele>
        <time>2020-09-17T17:39:47.740Z</time>
      </trkpt>
      <trkpt lat="45.60052" lon="6.63685">
        <ele>1652.497622</ele>
        <time>2020-09-17T17:41:31.353Z</time>
      </trkpt>
      <trkpt lat="45.60073" lon="6.63674">
        <ele>1652.054017</ele>
        <time>2020-09-17T17:41:42.104Z</time>
      </trkpt>
      <trkpt lat="45.601" lon="6.63631">
        <ele>1650.23761</ele>
        <time>2020-09-17T17:42:03.015Z</time>
      </trkpt>
      <trkpt lat="45.60123" lon="6.63576">
        <ele>1648.25992</ele>
        <time>2020-09-17T17:42:24.979Z</time>
      </trkpt>
      <trkpt lat="45.60141" lon="6.63559">
        <ele>1647.30695</ele>
        <time>2020-09-17T17:42:34.604Z</time>
      </trkpt>
      <trkpt lat="45.60153" lon="6.63551">
        <ele>1646.734073</ele>
        <time>2020-09-17T17:42:41.025Z</time>
      </trkpt>
      <trkpt lat="45.60161" lon="6.63546">
        <ele>1646.32144</ele>
        <time>2020-09-17T17:42:45.677Z</time>
      </trkpt>
      <trkpt lat="45.60158" lon="6.63562">
        <ele>1645.810329</ele>
        <time>2020-09-17T17:42:51.374Z</time>
      </trkpt>
      <trkpt lat="45.60138" lon="6.63592">
        <ele>1644.204452</ele>
        <time>2020-09-17T17:43:07.561Z</time>
      </trkpt>
      <trkpt lat="45.60125" lon="6.63653">
        <ele>1639.681371</ele>
        <time>2020-09-17T17:43:29.933Z</time>
      </trkpt>
      <trkpt lat="45.60108" lon="6.63691">
        <ele>1636.437595</ele>
        <time>2020-09-17T17:43:45.857Z</time>
      </trkpt>
      <trkpt lat="45.60064" lon="6.63733">
        <ele>1631.016596</ele>
        <time>2020-09-17T17:44:12.087Z</time>
      </trkpt>
      <trkpt lat="45.59971" lon="6.63837">
        <ele>1618.835567</ele>
        <time>2020-09-17T17:45:11.449Z</time>
      </trkpt>
      <trkpt lat="45.59931" lon="6.63904">
        <ele>1612.432646</ele>
        <time>2020-09-17T17:45:42.133Z</time>
      </trkpt>
      <trkpt lat="45.59919" lon="6.63932">
        <ele>1609.980916</ele>
        <time>2020-09-17T17:45:53.842Z</time>
      </trkpt>
      <trkpt lat="45.59901" lon="6.63954">
        <ele>1607.483954</ele>
        <time>2020-09-17T17:46:05.784Z</time>
      </trkpt>
      <trkpt lat="45.59894" lon="6.63977">
        <ele>1605.563029</ele>
        <time>2020-09-17T17:46:14.572Z</time>
      </trkpt>
      <trkpt lat="45.59872" lon="6.64013">
        <ele>1601.908921</ele>
        <time>2020-09-17T17:46:31.359Z</time>
      </trkpt>
      <trkpt lat="45.59845" lon="6.64032">
        <ele>1598.657013</ele>
        <time>2020-09-17T17:46:46.181Z</time>
      </trkpt>
      <trkpt lat="45.59839" lon="6.64052">
        <ele>1597.010727</ele>
        <time>2020-09-17T17:46:53.696Z</time>
      </trkpt>
      <trkpt lat="45.59817" lon="6.64082">
        <ele>1593.626306</ele>
        <time>2020-09-17T17:47:09.045Z</time>
      </trkpt>
      <trkpt lat="45.59746" lon="6.64155">
        <ele>1584.061026</ele>
        <time>2020-09-17T17:47:52.228Z</time>
      </trkpt>
      <trkpt lat="45.59709" lon="6.64175">
        <ele>1579.652821</ele>
        <time>2020-09-17T17:48:12.107Z</time>
      </trkpt>
      <trkpt lat="45.59667" lon="6.64218">
        <ele>1574.019028</ele>
        <time>2020-09-17T17:48:37.571Z</time>
      </trkpt>
      <trkpt lat="45.59654" lon="6.64242">
        <ele>1571.645907</ele>
        <time>2020-09-17T17:48:48.308Z</time>
      </trkpt>
      <trkpt lat="45.59633" lon="6.64266">
        <ele>1568.663938</ele>
        <time>2020-09-17T17:49:01.619Z</time>
      </trkpt>
      <trkpt lat="45.59567" lon="6.64331">
        <ele>1558.525043</ele>
        <time>2020-09-17T17:49:41.144Z</time>
      </trkpt>
      <trkpt lat="45.59517" lon="6.64355">
        <ele>1551.669702</ele>
        <time>2020-09-17T17:50:07.517Z</time>
      </trkpt>
      <trkpt lat="45.59479" lon="6.64392">
        <ele>1545.83872</ele>
        <time>2020-09-17T17:50:29.928Z</time>
      </trkpt>
      <trkpt lat="45.59453" lon="6.64401">
        <ele>1542.213209</ele>
        <time>2020-09-17T17:50:43.059Z</time>
      </trkpt>
      <trkpt lat="45.59438" lon="6.64415">
        <ele>1539.762299</ele>
        <time>2020-09-17T17:50:51.767Z</time>
      </trkpt>
      <trkpt lat="45.59419" lon="6.64457">
        <ele>1534.934857</ele>
        <time>2020-09-17T17:51:08.891Z</time>
      </trkpt>
      <trkpt lat="45.59415" lon="6.6451">
        <ele>1529.727058</ele>
        <time>2020-09-17T17:51:27.414Z</time>
      </trkpt>
      <trkpt lat="45.59421" lon="6.64526">
        <ele>1528.049764</ele>
        <time>2020-09-17T17:51:33.356Z</time>
      </trkpt>
      <trkpt lat="45.59438" lon="6.64527">
        <ele>1525.625163</ele>
        <time>2020-09-17T17:51:41.955Z</time>
      </trkpt>
      <trkpt lat="45.59436" lon="6.64542">
        <ele>1524.055979</ele>
        <time>2020-09-17T17:51:47.567Z</time>
      </trkpt>
      <trkpt lat="45.59451" lon="6.64534">
        <ele>1521.72483</ele>
        <time>2020-09-17T17:51:55.839Z</time>
      </trkpt>
      <trkpt lat="45.59453" lon="6.64543">
        <ele>1520.806144</ele>
        <time>2020-09-17T17:51:59.105Z</time>
      </trkpt>
      <trkpt lat="45.59401" lon="6.64598">
        <ele>1514.691888</ele>
        <time>2020-09-17T17:52:31.035Z</time>
      </trkpt>
      <trkpt lat="45.59372" lon="6.64612">
        <ele>1511.936612</ele>
        <time>2020-09-17T17:52:46.556Z</time>
      </trkpt>
      <trkpt lat="45.59366" lon="6.64618">
        <ele>1511.222622</ele>
        <time>2020-09-17T17:52:50.548Z</time>
      </trkpt>
      <trkpt lat="45.59342" lon="6.64643">
        <ele>1508.518978</ele>
        <time>2020-09-17T17:53:06.154Z</time>
      </trkpt>
      <trkpt lat="45.59321" lon="6.6465">
        <ele>1506.563826</ele>
        <time>2020-09-17T17:53:17.447Z</time>
      </trkpt>
      <trkpt lat="45.59278" lon="6.64697">
        <ele>1502.454228</ele>
        <time>2020-09-17T17:53:47.078Z</time>
      </trkpt>
      <trkpt lat="45.59248" lon="6.64722">
        <ele>1500.593734</ele>
        <time>2020-09-17T17:54:06.542Z</time>
      </trkpt>
      <trkpt lat="45.59244" lon="6.6473">
        <ele>1500.224979</ele>
        <time>2020-09-17T17:54:10.262Z</time>
      </trkpt>
      <trkpt lat="45.59195" lon="6.64775">
        <ele>1497.115031</ele>
        <time>2020-09-17T17:54:43.669Z</time>
      </trkpt>
      <trkpt lat="45.59162" lon="6.64811">
        <ele>1494.879694</ele>
        <time>2020-09-17T17:55:06.860Z</time>
      </trkpt>
      <trkpt lat="45.59129" lon="6.6483">
        <ele>1492.903785</ele>
        <time>2020-09-17T17:55:25.968Z</time>
      </trkpt>
      <trkpt lat="45.59076" lon="6.64893">
        <ele>1488.893086</ele>
        <time>2020-09-17T17:56:02.831Z</time>
      </trkpt>
      <trkpt lat="45.59038" lon="6.64922">
        <ele>1486.355047</ele>
        <time>2020-09-17T17:56:26.698Z</time>
      </trkpt>
      <trkpt lat="45.59025" lon="6.64925">
        <ele>1485.594416</ele>
        <time>2020-09-17T17:56:33.920Z</time>
      </trkpt>
      <trkpt lat="45.58985" lon="6.6497">
        <ele>1482.921915</ele>
        <time>2020-09-17T17:57:02.435Z</time>
      </trkpt>
      <trkpt lat="45.58971" lon="6.64976">
        <ele>1482.360862</ele>
        <time>2020-09-17T17:57:10.632Z</time>
      </trkpt>
      <trkpt lat="45.58919" lon="6.6503">
        <ele>1479.873789</ele>
        <time>2020-09-17T17:57:47.465Z</time>
      </trkpt>
      <trkpt lat="45.58881" lon="6.65038">
        <ele>1478.367681</ele>
        <time>2020-09-17T17:58:10.171Z</time>
      </trkpt>
      <trkpt lat="45.58854" lon="6.6501">
        <ele>1477.094185</ele>
        <time>2020-09-17T17:58:29.697Z</time>
      </trkpt>
      <trkpt lat="45.58835" lon="6.64975">
        <ele>1475.375882</ele>
        <time>2020-09-17T17:58:48.127Z</time>
      </trkpt>
      <trkpt lat="45.58815" lon="6.64987">
        <ele>1473.916263</ele>
        <time>2020-09-17T17:59:00.413Z</time>
      </trkpt>
      <trkpt lat="45.58751" lon="6.65151">
        <ele>1464.787949</ele>
        <time>2020-09-17T18:00:10.624Z</time>
      </trkpt>
      <trkpt lat="45.58727" lon="6.65177">
        <ele>1461.734021</ele>
        <time>2020-09-17T18:00:25.163Z</time>
      </trkpt>
      <trkpt lat="45.58691" lon="6.652">
        <ele>1457.017889</ele>
        <time>2020-09-17T18:00:44.536Z</time>
      </trkpt>
      <trkpt lat="45.58602" lon="6.65229">
        <ele>1445.989504</ele>
        <time>2020-09-17T18:01:29.664Z</time>
      </trkpt>
      <trkpt lat="45.58539" lon="6.65242">
        <ele>1439.406751</ele>
        <time>2020-09-17T18:02:00.826Z</time>
      </trkpt>
      <trkpt lat="45.5848" lon="6.65245">
        <ele>1434.068009</ele>
        <time>2020-09-17T18:02:30.609Z</time>
      </trkpt>
      <trkpt lat="45.58443" lon="6.65238">
        <ele>1430.664639</ele>
        <time>2020-09-17T18:02:50.313Z</time>
      </trkpt>
      <trkpt lat="45.58251" lon="6.65165">
        <ele>1417.319774</ele>
        <time>2020-09-17T18:04:40.075Z</time>
      </trkpt>
      <trkpt lat="45.58236" lon="6.6516">
        <ele>1416.388058</ele>
        <time>2020-09-17T18:04:48.962Z</time>
      </trkpt>
      <trkpt lat="45.58232" lon="6.65157">
        <ele>1416.125213</ele>
        <time>2020-09-17T18:04:51.411Z</time>
      </trkpt>
      <trkpt lat="45.58208" lon="6.65152">
        <ele>1413.905295</ele>
        <time>2020-09-17T18:05:04.543Z</time>
      </trkpt>
      <trkpt lat="45.58203" lon="6.65148">
        <ele>1413.269545</ele>
        <time>2020-09-17T18:05:07.924Z</time>
      </trkpt>
      <trkpt lat="45.58175" lon="6.65157">
        <ele>1410.027503</ele>
        <time>2020-09-17T18:05:19.991Z</time>
      </trkpt>
      <trkpt lat="45.58136" lon="6.65178">
        <ele>1405.324933</ele>
        <time>2020-09-17T18:05:37.800Z</time>
      </trkpt>
      <trkpt lat="45.58062" lon="6.65229">
        <ele>1396.045214</ele>
        <time>2020-09-17T18:06:12.288Z</time>
      </trkpt>
      <trkpt lat="45.58061" lon="6.65233">
        <ele>1395.717068</ele>
        <time>2020-09-17T18:06:13.909Z</time>
      </trkpt>
      <trkpt lat="45.58028" lon="6.65243">
        <ele>1390.274254</ele>
        <time>2020-09-17T18:06:28.173Z</time>
      </trkpt>
      <trkpt lat="45.58003" lon="6.6525">
        <ele>1386.013127</ele>
        <time>2020-09-17T18:06:38.893Z</time>
      </trkpt>
      <trkpt lat="45.57973" lon="6.65253">
        <ele>1381.142777</ele>
        <time>2020-09-17T18:06:50.987Z</time>
      </trkpt>
      <trkpt lat="45.57889" lon="6.65242">
        <ele>1367.050965</ele>
        <time>2020-09-17T18:07:26.026Z</time>
      </trkpt>
      <trkpt lat="45.57845" lon="6.65227">
        <ele>1357.759856</ele>
        <time>2020-09-17T18:07:44.789Z</time>
      </trkpt>
      <trkpt lat="45.57825" lon="6.65233">
        <ele>1353.339405</ele>
        <time>2020-09-17T18:07:54.612Z</time>
      </trkpt>
      <trkpt lat="45.57803" lon="6.65264">
        <ele>1346.577057</ele>
        <time>2020-09-17T18:08:09.751Z</time>
      </trkpt>
      <trkpt lat="45.57762" lon="6.6527">
        <ele>1337.744136</ele>
        <time>2020-09-17T18:08:29.409Z</time>
      </trkpt>
      <trkpt lat="45.57752" lon="6.65264">
        <ele>1335.278985</ele>
        <time>2020-09-17T18:08:34.898Z</time>
      </trkpt>
      <trkpt lat="45.5772" lon="6.65282">
        <ele>1328.021525</ele>
        <time>2020-09-17T18:08:51.653Z</time>
      </trkpt>
      <trkpt lat="45.57699" lon="6.65278">
        <ele>1323.036725</ele>
        <time>2020-09-17T18:09:02.828Z</time>
      </trkpt>
      <trkpt lat="45.57647" lon="6.65293">
        <ele>1310.689601</ele>
        <time>2020-09-17T18:09:28.881Z</time>
      </trkpt>
      <trkpt lat="45.57614" lon="6.65309">
        <ele>1302.486597</ele>
        <time>2020-09-17T18:09:46.220Z</time>
      </trkpt>
      <trkpt lat="45.576" lon="6.65325">
        <ele>1298.20691</ele>
        <time>2020-09-17T18:09:55.328Z</time>
      </trkpt>
      <trkpt lat="45.57582" lon="6.65334">
        <ele>1293.726748</ele>
        <time>2020-09-17T18:10:04.567Z</time>
      </trkpt>
      <trkpt lat="45.57566" lon="6.65334">
        <ele>1290.159456</ele>
        <time>2020-09-17T18:10:11.973Z</time>
      </trkpt>
      <trkpt lat="45.57508" lon="6.65277">
        <ele>1277.530943</ele>
        <time>2020-09-17T18:10:46.114Z</time>
      </trkpt>
      <trkpt lat="45.57484" lon="6.65239">
        <ele>1272.199353</ele>
        <time>2020-09-17T18:11:03.754Z</time>
      </trkpt>
      <trkpt lat="45.57476" lon="6.65206">
        <ele>1268.523513</ele>
        <time>2020-09-17T18:11:16.018Z</time>
      </trkpt>
      <trkpt lat="45.57457" lon="6.65192">
        <ele>1265.367908</ele>
        <time>2020-09-17T18:11:26.534Z</time>
      </trkpt>
      <trkpt lat="45.57442" lon="6.65154">
        <ele>1260.900293</ele>
        <time>2020-09-17T18:11:41.486Z</time>
      </trkpt>
      <trkpt lat="45.57428" lon="6.65135">
        <ele>1258.0465</ele>
        <time>2020-09-17T18:11:51.163Z</time>
      </trkpt>
      <trkpt lat="45.57399" lon="6.65117">
        <ele>1257.473928</ele>
        <time>2020-09-17T18:12:07.393Z</time>
      </trkpt>
      <trkpt lat="45.57377" lon="6.65089">
        <ele>1257.473928</ele>
        <time>2020-09-17T18:12:23.177Z</time>
      </trkpt>
      <trkpt lat="45.57365" lon="6.65076">
        <ele>1257.473928</ele>
        <time>2020-09-17T18:12:29.670Z</time>
      </trkpt>
      <trkpt lat="45.57354" lon="6.6506">
        <ele>1257.473928</ele>
        <time>2020-09-17T18:12:37.181Z</time>
      </trkpt>
      <trkpt lat="45.57347" lon="6.65041">
        <ele>1257.473928</ele>
        <time>2020-09-17T18:12:44.332Z</time>
      </trkpt>
      <trkpt lat="45.57335" lon="6.65023">
        <ele>1257.473928</ele>
        <time>2020-09-17T18:12:52.534Z</time>
      </trkpt>
      <trkpt lat="45.57328" lon="6.65005">
        <ele>1257.473928</ele>
        <time>2020-09-17T18:12:59.453Z</time>
      </trkpt>
      <trkpt lat="45.57321" lon="6.64998">
        <ele>1257.473928</ele>
        <time>2020-09-17T18:13:03.456Z</time>
      </trkpt>
      <trkpt lat="45.57319" lon="6.64968">
        <ele>1257.473928</ele>
        <time>2020-09-17T18:13:14.138Z</time>
      </trkpt>
      <trkpt lat="45.57312" lon="6.64976">
        <ele>1257.473928</ele>
        <time>2020-09-17T18:13:18.204Z</time>
      </trkpt>
    </trkseg>
  </trk>
</gpx>